createdAt,value
2018-01-04T00:02:04.885Z,7.46
2018-01-04T00:04:33.231Z,7.38
2018-01-04T00:07:01.646Z,7.34
2018-01-04T00:09:29.973Z,7.30
2018-01-04T00:11:58.298Z,7.27
2018-01-04T00:14:26.635Z,7.31
2018-01-04T00:16:55.045Z,7.33
2018-01-04T00:19:23.438Z,7.30
2018-01-04T00:21:51.694Z,7.29
2018-01-04T00:24:20.045Z,7.36
2018-01-04T00:26:48.358Z,7.31
2018-01-04T00:29:16.678Z,7.31
2018-01-04T00:31:45.006Z,7.40
2018-01-04T00:34:13.378Z,7.34
2018-01-04T00:36:41.713Z,7.35
2018-01-04T00:39:10.035Z,7.43
2018-01-04T00:41:38.359Z,7.41
2018-01-04T00:44:06.669Z,7.43
2018-01-04T00:46:35.061Z,7.49
2018-01-04T00:49:03.369Z,7.38
2018-01-04T00:51:31.698Z,7.40
2018-01-04T00:54:00.090Z,7.33
2018-01-04T00:56:28.474Z,7.45
2018-01-04T00:58:56.786Z,7.38
2018-01-04T01:01:25.117Z,7.34
2018-01-04T01:03:53.433Z,7.38
2018-01-04T01:06:21.773Z,7.41
2018-01-04T01:08:50.086Z,7.46
2018-01-04T01:11:18.413Z,7.39
2018-01-04T01:13:46.725Z,7.38
2018-01-04T01:16:15.057Z,7.45
2018-01-04T01:18:43.458Z,7.45
2018-01-04T01:21:11.795Z,7.50
2018-01-04T01:23:40.101Z,7.52
2018-01-04T01:26:08.442Z,7.52
2018-01-04T01:28:36.762Z,7.61
2018-01-04T01:31:05.094Z,7.60
2018-01-04T01:33:33.516Z,7.62
2018-01-04T01:36:01.850Z,7.62
2018-01-04T01:38:30.153Z,7.65
2018-01-04T01:40:58.491Z,7.62
2018-01-04T01:43:26.818Z,7.66
2018-01-04T01:45:55.193Z,7.61
2018-01-04T01:48:23.570Z,7.56
2018-01-04T01:50:51.945Z,7.57
2018-01-04T01:53:20.257Z,7.57
2018-01-04T01:55:48.595Z,7.49
2018-01-04T01:58:16.976Z,7.54
2018-01-04T02:00:45.318Z,7.55
2018-01-04T02:03:13.734Z,7.54
2018-01-04T02:05:42.074Z,7.50
2018-01-04T02:08:10.391Z,7.53
2018-01-04T02:10:38.714Z,7.56
2018-01-04T02:13:07.026Z,7.56
2018-01-04T02:15:35.418Z,7.61
2018-01-04T02:18:15.521Z,7.58
2018-01-04T02:20:55.761Z,7.60
2018-01-04T02:23:36.034Z,7.60
2018-01-04T02:26:04.365Z,7.52
2018-01-04T02:28:44.614Z,7.55
2018-01-04T02:31:24.966Z,7.45
2018-01-04T02:34:05.028Z,7.47
2018-01-04T02:36:45.273Z,7.45
2018-01-04T02:39:25.118Z,7.38
2018-01-04T02:42:04.969Z,7.38
2018-01-04T02:44:39.902Z,7.43
2018-01-04T02:47:07.955Z,7.44
2018-01-04T02:49:35.990Z,7.47
2018-01-04T02:52:04.042Z,7.46
2018-01-04T02:54:32.074Z,7.53
2018-01-04T02:57:00.130Z,7.45
2018-01-04T02:59:28.167Z,7.56
2018-01-04T03:01:56.281Z,7.57
2018-01-04T03:04:24.353Z,7.57
2018-01-04T03:06:52.401Z,7.62
2018-01-04T03:09:20.493Z,7.64
2018-01-04T03:11:48.567Z,7.64
2018-01-04T03:14:16.638Z,7.65
2018-01-04T03:16:44.686Z,7.63
2018-01-04T03:19:12.721Z,7.67
2018-01-04T03:21:46.311Z,7.69
2018-01-04T03:24:14.337Z,7.62
2018-01-04T03:26:48.010Z,7.62
2018-01-04T03:29:21.534Z,7.62
2018-01-04T03:31:55.094Z,7.63
2018-01-04T03:34:28.938Z,7.65
2018-01-04T03:37:02.721Z,7.68
2018-01-04T03:39:30.823Z,7.64
2018-01-04T03:42:04.553Z,7.69
2018-01-04T03:44:38.269Z,7.74
2018-01-04T03:47:12.034Z,7.67
2018-01-04T03:49:45.802Z,7.71
2018-01-04T03:52:32.696Z,7.69
2018-01-04T03:55:06.434Z,7.70
2018-01-04T03:57:40.162Z,7.72
2018-01-04T04:00:13.883Z,7.76
2018-01-04T04:02:47.474Z,7.74
2018-01-04T04:05:21.218Z,7.79
2018-01-04T04:07:49.270Z,7.80
2018-01-04T04:10:17.393Z,7.80
2018-01-04T04:12:45.441Z,7.79
2018-01-04T04:15:13.477Z,7.80
2018-01-04T04:17:41.533Z,7.78
2018-01-04T04:20:09.561Z,7.79
2018-01-04T04:22:37.617Z,7.78
2018-01-04T04:25:05.655Z,7.81
2018-01-04T04:27:33.705Z,7.80
2018-01-04T04:30:01.742Z,7.78
2018-01-04T04:32:29.789Z,7.81
2018-01-04T04:34:57.894Z,7.81
2018-01-04T04:37:25.951Z,7.79
2018-01-04T04:39:53.978Z,7.78
2018-01-04T04:42:22.097Z,7.74
2018-01-04T04:44:50.139Z,7.77
2018-01-04T04:47:18.237Z,7.72
2018-01-04T04:49:46.314Z,7.78
2018-01-04T04:52:14.370Z,7.82
2018-01-04T04:54:42.406Z,7.72
2018-01-04T04:57:10.473Z,7.74
2018-01-04T04:59:38.596Z,7.79
2018-01-04T05:02:06.645Z,7.74
2018-01-04T05:04:34.686Z,7.82
2018-01-04T05:07:02.802Z,7.74
2018-01-04T05:09:30.870Z,7.78
2018-01-04T05:11:58.905Z,7.71
2018-01-04T05:14:26.969Z,7.82
2018-01-04T05:16:54.998Z,7.79
2018-01-04T05:19:23.149Z,7.78
2018-01-04T05:21:51.181Z,7.79
2018-01-04T05:24:19.239Z,7.83
2018-01-04T05:26:47.269Z,7.76
2018-01-04T05:29:15.437Z,7.77
2018-01-04T05:31:43.469Z,7.77
2018-01-04T05:34:11.526Z,7.72
2018-01-04T05:36:39.553Z,7.79
2018-01-04T05:39:07.614Z,7.69
2018-01-04T05:41:35.644Z,7.79
2018-01-04T05:44:03.702Z,7.77
2018-01-04T05:46:31.734Z,7.83
2018-01-04T05:48:59.791Z,7.78
2018-01-04T05:51:27.830Z,7.81
2018-01-04T05:53:55.877Z,7.80
2018-01-04T05:56:23.909Z,7.75
2018-01-04T05:58:51.963Z,7.74
2018-01-04T06:01:19.994Z,7.73
2018-01-04T06:03:48.051Z,7.74
2018-01-04T06:06:16.082Z,7.75
2018-01-04T06:08:44.137Z,7.73
2018-01-04T06:11:12.173Z,7.65
2018-01-04T06:13:40.218Z,7.75
2018-01-04T06:16:08.246Z,7.72
2018-01-04T06:18:36.302Z,7.67
2018-01-04T06:21:04.340Z,7.66
2018-01-04T06:23:34.426Z,7.66
2018-01-04T06:26:02.681Z,7.64
2018-01-04T06:28:30.739Z,7.68
2018-01-04T06:30:58.774Z,7.72
2018-01-04T06:33:26.990Z,7.67
2018-01-04T06:35:55.046Z,7.75
2018-01-04T06:38:23.131Z,7.71
2018-01-04T06:40:51.175Z,7.72
2018-01-04T06:43:19.234Z,7.71
2018-01-04T06:45:47.276Z,7.72
2018-01-04T06:48:15.562Z,7.66
2018-01-04T06:50:46.538Z,7.78
2018-01-04T06:53:15.185Z,7.68
2018-01-04T06:55:43.217Z,7.68
2018-01-04T06:58:11.279Z,7.71
2018-01-04T07:00:39.813Z,7.78
2018-01-04T07:03:07.821Z,7.77
2018-01-04T07:05:35.879Z,7.81
2018-01-04T07:08:03.905Z,7.78
2018-01-04T07:10:31.963Z,7.73
2018-01-04T07:12:59.998Z,7.77
2018-01-04T07:15:28.058Z,7.68
2018-01-04T07:17:56.093Z,7.66
2018-01-04T07:20:24.150Z,7.69
2018-01-04T07:22:52.186Z,7.64
2018-01-04T07:25:20.242Z,7.65
2018-01-04T07:27:48.274Z,7.55
2018-01-04T07:30:16.329Z,7.57
2018-01-04T07:32:44.362Z,7.50
2018-01-04T07:35:12.418Z,7.51
2018-01-04T07:37:40.458Z,7.48
2018-01-04T07:40:08.513Z,7.46
2018-01-04T07:42:36.838Z,7.37
2018-01-04T07:45:05.174Z,7.31
2018-01-04T07:47:33.490Z,7.31
2018-01-04T07:50:01.826Z,7.27
2018-01-04T07:52:30.148Z,7.21
2018-01-04T07:54:58.528Z,7.28
2018-01-04T07:57:26.807Z,7.33
2018-01-04T07:59:55.163Z,7.30
2018-01-04T08:02:23.473Z,7.26
2018-01-04T08:04:51.790Z,7.30
2018-01-04T08:07:20.129Z,7.30
2018-01-04T08:09:48.447Z,7.27
2018-01-04T08:12:16.785Z,7.24
2018-01-04T08:14:45.102Z,7.23
2018-01-04T08:17:13.442Z,7.29
2018-01-04T08:19:41.757Z,7.27
2018-01-04T08:22:10.089Z,7.35
2018-01-04T08:24:38.406Z,7.30
2018-01-04T08:27:06.746Z,7.28
2018-01-04T08:29:35.058Z,7.28
2018-01-04T08:32:03.406Z,7.34
2018-01-04T08:34:31.718Z,7.32
2018-01-04T08:37:00.070Z,7.63
2018-01-04T08:39:28.386Z,7.46
2018-01-04T08:41:56.730Z,7.46
2018-01-04T08:44:25.080Z,7.42
2018-01-04T08:46:53.438Z,7.45
2018-01-04T08:49:21.761Z,7.43
2018-01-04T08:51:50.070Z,7.45
2018-01-04T08:54:18.711Z,7.44
2018-01-04T08:56:47.026Z,7.50
2018-01-04T08:59:15.365Z,7.45
2018-01-04T09:01:43.694Z,7.52
2018-01-04T09:04:12.035Z,7.58
2018-01-04T09:06:40.358Z,7.62
2018-01-04T09:09:08.694Z,7.61
2018-01-04T09:11:37.010Z,7.59
2018-01-04T09:14:05.531Z,7.61
2018-01-04T09:16:33.850Z,7.66
2018-01-04T09:19:02.191Z,7.61
2018-01-04T09:21:30.512Z,7.71
2018-01-04T09:23:58.895Z,7.66
2018-01-04T09:26:27.386Z,7.74
2018-01-04T09:28:56.091Z,7.73
2018-01-04T09:31:25.351Z,7.65
2018-01-04T09:33:54.096Z,7.75
2018-01-04T09:36:23.841Z,7.76
2018-01-04T09:38:52.597Z,7.77
2018-01-04T09:41:21.322Z,7.81
2018-01-04T09:43:50.177Z,7.82
2018-01-04T09:46:18.925Z,7.83
2018-01-04T09:48:47.663Z,7.78
2018-01-04T09:51:16.443Z,7.80
2018-01-04T09:53:46.182Z,7.89
2018-01-04T09:56:14.821Z,7.85
2018-01-04T09:58:43.349Z,7.86
2018-01-04T10:01:11.899Z,7.86
2018-01-04T10:03:40.670Z,7.95
2018-01-04T10:06:09.461Z,7.90
2018-01-04T10:08:38.144Z,7.94
2018-01-04T10:11:06.817Z,7.99
2018-01-04T10:13:35.472Z,8.01
2018-01-04T10:16:04.106Z,7.98
2018-01-04T10:18:32.730Z,8.04
2018-01-04T10:21:01.451Z,8.08
2018-01-04T10:23:30.141Z,8.09
2018-01-04T10:25:58.897Z,8.09
2018-01-04T10:28:27.670Z,8.12
2018-01-04T10:30:56.484Z,8.13
2018-01-04T10:33:25.270Z,8.07
2018-01-04T10:35:54.008Z,8.12
2018-01-04T10:38:22.669Z,8.13
2018-01-04T10:40:51.358Z,8.14
2018-01-04T10:43:19.747Z,8.05
2018-01-04T10:45:48.086Z,8.18
2018-01-04T10:48:16.406Z,8.04
2018-01-04T10:50:44.737Z,8.07
2018-01-04T10:53:13.054Z,8.07
2018-01-04T10:55:41.394Z,8.11
2018-01-04T10:58:09.718Z,8.11
2018-01-04T11:00:38.059Z,8.11
2018-01-04T11:03:06.374Z,8.08
2018-01-04T11:05:34.717Z,8.14
2018-01-04T11:08:03.038Z,8.09
2018-01-04T11:10:31.390Z,8.07
2018-01-04T11:12:59.714Z,8.22
2018-01-04T11:15:28.059Z,8.23
2018-01-04T11:17:56.382Z,8.19
2018-01-04T11:20:24.727Z,8.24
2018-01-04T11:22:53.083Z,8.22
2018-01-04T11:25:21.421Z,8.24
2018-01-04T11:27:49.741Z,8.31
2018-01-04T11:30:18.071Z,8.29
2018-01-04T11:32:46.391Z,8.26
2018-01-04T11:35:14.730Z,8.28
2018-01-04T11:37:43.709Z,8.36
2018-01-04T11:40:12.046Z,8.42
2018-01-04T11:42:40.374Z,8.41
2018-01-04T11:45:08.714Z,8.43
2018-01-04T11:47:37.034Z,8.55
2018-01-04T11:50:05.390Z,8.48
2018-01-04T11:52:33.714Z,8.43
2018-01-04T11:55:02.062Z,8.48
2018-01-04T11:57:30.719Z,8.49
2018-01-04T11:59:59.287Z,8.49
2018-01-04T12:02:27.593Z,8.53
2018-01-04T12:04:55.930Z,8.84
2018-01-04T12:07:24.252Z,8.75
2018-01-04T12:09:52.603Z,8.74
2018-01-04T12:12:20.974Z,8.68
2018-01-04T12:14:49.246Z,8.68
2018-01-04T12:17:17.583Z,8.60
2018-01-04T12:19:45.907Z,8.67
2018-01-04T12:22:14.252Z,8.72
2018-01-04T12:24:42.586Z,8.69
2018-01-04T12:27:10.925Z,8.69
2018-01-04T12:29:39.403Z,8.67
2018-01-04T12:32:08.068Z,8.64
2018-01-04T12:34:36.547Z,8.67
2018-01-04T12:37:05.277Z,8.81
2018-01-04T12:39:33.722Z,8.81
2018-01-04T12:42:02.126Z,8.74
2018-01-04T12:44:30.631Z,8.63
2018-01-04T12:46:59.118Z,8.77
2018-01-04T12:49:27.510Z,8.74
2018-01-04T12:51:56.062Z,8.63
2018-01-04T12:54:25.035Z,8.74
2018-01-04T12:56:54.580Z,8.70
2018-01-04T12:59:22.966Z,8.68
2018-01-04T13:01:51.310Z,8.68
2018-01-04T13:04:19.750Z,8.78
2018-01-04T13:06:48.087Z,8.73
2018-01-04T13:09:16.409Z,8.66
2018-01-04T13:11:44.902Z,8.70
2018-01-04T13:14:14.010Z,8.70
2018-01-04T13:16:42.350Z,8.77
2018-01-04T13:19:10.669Z,8.72
2018-01-04T13:21:39.015Z,8.69
2018-01-04T13:24:07.330Z,8.67
2018-01-04T13:26:35.679Z,8.69
2018-01-04T13:29:03.990Z,8.66
2018-01-04T13:31:32.334Z,8.66
2018-01-04T13:34:00.654Z,8.77
2018-01-04T13:36:29.001Z,8.75
2018-01-04T13:38:57.315Z,8.90
2018-01-04T13:41:25.665Z,8.90
2018-01-04T13:43:53.986Z,8.92
2018-01-04T13:46:22.322Z,8.91
2018-01-04T13:48:50.637Z,8.94
2018-01-04T13:51:18.982Z,8.97
2018-01-04T13:53:47.299Z,9.00
2018-01-04T13:56:15.637Z,9.11
2018-01-04T13:58:43.954Z,9.08
2018-01-04T14:01:12.294Z,9.14
2018-01-04T14:03:40.610Z,9.06
2018-01-04T14:06:08.951Z,9.12
2018-01-04T14:08:37.266Z,8.86
2018-01-04T14:11:05.616Z,8.93
2018-01-04T14:13:33.923Z,8.74
2018-01-04T14:16:02.283Z,8.69
2018-01-04T14:18:30.603Z,8.67
2018-01-04T14:20:58.918Z,8.78
2018-01-04T14:23:27.258Z,8.76
2018-01-04T14:25:55.894Z,8.76
2018-01-04T14:28:24.576Z,8.75
2018-01-04T14:30:52.954Z,8.77
2018-01-04T14:33:21.294Z,8.76
2018-01-04T14:35:49.610Z,8.76
2018-01-04T14:38:17.946Z,8.79
2018-01-04T14:40:46.266Z,8.73
2018-01-04T14:43:14.606Z,8.68
2018-01-04T14:45:42.919Z,8.66
2018-01-04T14:48:11.260Z,8.68
2018-01-04T14:50:39.604Z,8.65
2018-01-04T14:53:07.946Z,8.64
2018-01-04T14:55:36.267Z,8.61
2018-01-04T14:58:04.606Z,8.61
2018-01-04T15:00:32.922Z,8.55
2018-01-04T15:03:01.262Z,8.55
2018-01-04T15:05:29.668Z,8.43
2018-01-04T15:07:58.035Z,8.49
2018-01-04T15:10:26.350Z,8.38
2018-01-04T15:12:54.698Z,8.38
2018-01-04T15:15:23.027Z,8.49
2018-01-04T15:17:51.394Z,8.30
2018-01-04T15:20:19.713Z,8.49
2018-01-04T15:22:48.056Z,8.26
2018-01-04T15:25:16.376Z,8.24
2018-01-04T15:27:44.718Z,8.23
2018-01-04T15:30:13.848Z,8.23
2018-01-04T15:32:42.195Z,8.22
2018-01-04T15:35:10.505Z,8.17
2018-01-04T15:37:38.841Z,8.02
2018-01-04T15:40:07.185Z,7.91
2018-01-04T15:42:35.503Z,7.95
2018-01-04T15:45:03.822Z,7.88
2018-01-04T15:47:32.171Z,7.84
2018-01-04T15:50:00.481Z,7.73
2018-01-04T15:52:28.831Z,7.62
2018-01-04T15:54:57.149Z,7.65
2018-01-04T15:57:25.566Z,7.68
2018-01-04T15:59:53.875Z,7.63
2018-01-04T16:02:22.214Z,7.64
2018-01-04T16:04:50.545Z,7.70
2018-01-04T16:07:18.865Z,7.71
2018-01-04T16:09:47.195Z,7.58
2018-01-04T16:12:15.530Z,7.62
2018-01-04T16:14:43.847Z,7.57
2018-01-04T16:17:12.449Z,7.57
2018-01-04T16:19:40.763Z,7.51
2018-01-04T16:22:09.078Z,7.56
2018-01-04T16:24:37.415Z,7.55
2018-01-04T16:27:05.749Z,7.55
2018-01-04T16:29:34.070Z,7.55
2018-01-04T16:32:02.798Z,7.65
2018-01-04T16:34:36.032Z,7.57
2018-01-04T16:37:08.398Z,7.57
2018-01-04T16:39:36.734Z,7.77
2018-01-04T16:42:05.050Z,7.74
2018-01-04T16:44:33.390Z,7.73
2018-01-04T16:47:01.706Z,7.84
2018-01-04T16:49:30.158Z,7.79
2018-01-04T16:51:58.482Z,7.76
2018-01-04T16:54:26.822Z,7.67
2018-01-04T16:56:55.129Z,7.73
2018-01-04T16:59:23.681Z,7.63
2018-01-04T17:01:52.076Z,7.66
2018-01-04T17:04:20.435Z,7.66
2018-01-04T17:06:48.780Z,7.79
2018-01-04T17:09:17.107Z,7.79
2018-01-04T17:11:45.417Z,7.76
2018-01-04T17:14:13.747Z,7.70
2018-01-04T17:16:42.058Z,7.64
2018-01-04T17:19:10.391Z,7.68
2018-01-04T17:21:38.706Z,7.62
2018-01-04T17:24:07.047Z,7.69
2018-01-04T17:26:35.355Z,7.61
2018-01-04T17:29:03.699Z,7.49
2018-01-04T17:31:32.016Z,7.48
2018-01-04T17:34:00.363Z,7.47
2018-01-04T17:36:28.682Z,7.64
2018-01-04T17:38:56.997Z,7.75
2018-01-04T17:41:25.310Z,7.57
2018-01-04T17:43:53.646Z,7.52
2018-01-04T17:46:21.956Z,7.49
2018-01-04T17:48:50.290Z,7.48
2018-01-04T17:51:18.602Z,7.58
2018-01-04T17:53:46.943Z,7.64
2018-01-04T17:56:15.293Z,7.71
2018-01-04T17:58:43.599Z,7.81
2018-01-04T18:01:11.916Z,7.87
2018-01-04T18:03:40.255Z,7.85
2018-01-04T18:06:08.566Z,7.92
2018-01-04T18:08:36.905Z,7.96
2018-01-04T18:11:05.230Z,7.95
2018-01-04T18:13:33.564Z,8.04
2018-01-04T18:16:01.887Z,8.06
2018-01-04T18:18:30.226Z,8.04
2018-01-04T18:20:58.542Z,8.17
2018-01-04T18:23:26.887Z,8.12
2018-01-04T18:25:55.202Z,8.17
2018-01-04T18:28:23.525Z,8.26
2018-01-04T18:30:51.918Z,8.30
2018-01-04T18:33:20.242Z,8.35
2018-01-04T18:35:48.587Z,8.35
2018-01-04T18:38:17.041Z,8.41
2018-01-04T18:40:45.378Z,8.48
2018-01-04T18:43:13.701Z,8.48
2018-01-04T18:45:42.144Z,8.46
2018-01-04T18:48:10.674Z,8.40
2018-01-04T18:50:39.027Z,8.44
2018-01-04T18:53:07.350Z,8.54
2018-01-04T18:55:35.698Z,8.45
2018-01-04T18:58:04.036Z,8.44
2018-01-04T19:00:32.387Z,8.55
2018-01-04T19:03:00.710Z,8.51
2018-01-04T19:05:29.058Z,8.39
2018-01-04T19:07:57.386Z,8.51
2018-01-04T19:10:25.730Z,8.47
2018-01-04T19:12:54.059Z,8.52
2018-01-04T19:15:23.122Z,8.53
2018-01-04T19:17:51.445Z,8.63
2018-01-04T19:20:19.800Z,8.62
2018-01-04T19:22:48.127Z,8.58
2018-01-04T19:25:16.626Z,8.62
2018-01-04T19:27:45.015Z,8.75
2018-01-04T19:30:13.354Z,8.81
2018-01-04T19:32:41.674Z,8.92
2018-01-04T19:35:10.026Z,8.93
2018-01-04T19:37:38.357Z,8.97
2018-01-04T19:40:06.701Z,8.98
2018-01-04T19:42:35.867Z,9.02
2018-01-04T19:45:04.221Z,9.08
2018-01-04T19:47:32.535Z,9.09
2018-01-04T19:50:00.895Z,9.11
2018-01-04T19:52:29.223Z,9.16
2018-01-04T19:54:57.567Z,9.08
2018-01-04T19:57:25.891Z,9.10
2018-01-04T19:59:54.238Z,9.09
2018-01-04T20:02:22.559Z,9.08
2018-01-04T20:04:50.901Z,9.14
2018-01-04T20:07:19.315Z,9.07
2018-01-04T20:09:47.660Z,9.25
2018-01-04T20:12:15.974Z,9.27
2018-01-04T20:14:44.318Z,9.36
2018-01-04T20:17:12.663Z,9.44
2018-01-04T20:19:41.001Z,9.51
2018-01-04T20:22:09.330Z,9.55
2018-01-04T20:24:38.169Z,9.55
2018-01-04T20:27:06.491Z,9.59
2018-01-04T20:29:34.854Z,9.66
2018-01-04T20:32:03.218Z,9.63
2018-01-04T20:34:31.683Z,9.65
2018-01-04T20:37:00.027Z,9.69
2018-01-04T20:39:28.396Z,9.56
2018-01-04T20:41:56.797Z,9.52
2018-01-04T20:44:25.094Z,9.54
2018-01-04T20:46:53.520Z,9.59
2018-01-04T20:49:22.017Z,9.56
2018-01-04T20:51:50.798Z,9.56
2018-01-04T20:54:19.129Z,9.44
2018-01-04T20:56:47.471Z,9.49
2018-01-04T20:59:15.832Z,9.44
2018-01-04T21:01:44.351Z,9.43
2018-01-04T21:04:12.737Z,9.40
2018-01-04T21:06:41.069Z,9.53
2018-01-04T21:09:09.489Z,9.50
2018-01-04T21:11:38.843Z,9.49
2018-01-04T21:14:07.215Z,9.51
2018-01-04T21:16:35.714Z,9.49
2018-01-04T21:19:04.127Z,9.49
2018-01-04T21:21:32.806Z,9.46
2018-01-04T21:24:01.121Z,9.52
2018-01-04T21:26:29.466Z,9.56
2018-01-04T21:28:57.781Z,9.60
2018-01-04T21:31:26.354Z,9.50
2018-01-04T21:33:55.731Z,9.61
2018-01-04T21:36:25.170Z,9.69
2018-01-04T21:38:53.497Z,9.61
2018-01-04T21:41:21.952Z,9.60
2018-01-04T21:43:50.823Z,9.62
2018-01-04T21:46:19.697Z,9.64
2018-01-04T21:48:48.670Z,9.64
2018-01-04T21:51:16.997Z,9.63
2018-01-04T21:53:45.374Z,9.67
2018-01-04T21:56:13.714Z,9.76
2018-01-04T21:58:42.027Z,9.80
2018-01-04T22:01:10.357Z,9.80
2018-01-04T22:03:38.678Z,9.79
2018-01-04T22:06:07.018Z,9.79
2018-01-04T22:08:35.342Z,9.66
2018-01-04T22:11:03.699Z,9.73
2018-01-04T22:13:31.998Z,9.69
2018-01-04T22:16:00.339Z,9.74
2018-01-04T22:18:28.650Z,9.71
2018-01-04T22:20:56.989Z,9.73
2018-01-04T22:23:25.310Z,9.74
2018-01-04T22:25:53.655Z,9.69
2018-01-04T22:28:22.026Z,9.69
2018-01-04T22:30:50.438Z,9.67
2018-01-04T22:33:19.070Z,9.68
2018-01-04T22:35:48.339Z,9.66
2018-01-04T22:38:16.658Z,9.51
2018-01-04T22:40:44.982Z,9.50
2018-01-04T22:43:13.323Z,9.50
2018-01-04T22:45:42.691Z,9.45
2018-01-04T22:48:11.035Z,9.45
2018-01-04T22:50:40.779Z,9.47
2018-01-04T22:53:09.144Z,9.46
2018-01-04T22:55:38.382Z,9.44
2018-01-04T22:58:06.726Z,9.41
2018-01-04T23:00:35.047Z,9.49
2018-01-04T23:03:03.386Z,9.41
2018-01-04T23:05:31.699Z,9.35
2018-01-04T23:08:00.049Z,9.31
2018-01-04T23:10:28.350Z,9.25
2018-01-04T23:12:56.696Z,9.21
2018-01-04T23:15:25.009Z,9.25
2018-01-04T23:17:53.346Z,9.23
2018-01-04T23:20:21.662Z,9.17
2018-01-04T23:22:50.001Z,9.15
2018-01-04T23:25:18.369Z,9.10
2018-01-04T23:27:46.657Z,9.12
2018-01-04T23:30:14.975Z,9.02
2018-01-04T23:32:43.322Z,9.01
2018-01-04T23:35:11.638Z,8.92
2018-01-04T23:37:39.970Z,8.82
2018-01-04T23:40:08.285Z,8.80
2018-01-04T23:42:36.609Z,8.78
2018-01-04T23:45:04.923Z,8.71
2018-01-04T23:47:33.271Z,8.67
2018-01-04T23:50:01.582Z,8.62
2018-01-04T23:52:29.918Z,8.61
2018-01-04T23:54:59.138Z,8.62
2018-01-04T23:57:27.469Z,8.56
2018-01-04T23:59:55.781Z,8.61
